Time;durP1;ratioP1;P1;durP2;ratioP2;P2;SDS_P1;SDS_P2;PMS_P1;PMS_P2;Temp;Humidity;BMP_temperature;BMP_pressure;BME280_temperature;BME280_humidity;BME280_pressure;Samples;Min_cycle;Max_cycle;Signal;HPM_P1;HPM_P2
2022/08/07 00:02:07;;;;;;;2.22;1.75;;;;;;;17.64;53.65;100923.97;4958451;29;20086;-61
2022/08/07 00:04:51;;;;;;;7.80;1.80;;;;;;;17.65;53.56;100922.22;4958493;29;20419;-63
2022/08/07 00:07:37;;;;;;;2.10;1.90;;;;;;;17.63;53.51;100926.56;4958413;29;20430;-62
2022/08/07 00:10:27;;;;;;;3.50;2.13;;;;;;;17.63;53.76;100918.72;4944057;29;20126;-61
2022/08/07 00:13:12;;;;;;;6.20;2.20;;;;;;;17.61;53.91;100921.34;4943808;29;20086;-60
2022/08/07 00:16:01;;;;;;;6.28;1.77;;;;;;;17.61;53.73;100915.22;4958509;29;20111;-61
2022/08/07 00:18:48;;;;;;;3.00;1.73;;;;;;;17.59;53.89;100911.75;4944077;29;20130;-61
2022/08/07 00:21:34;;;;;;;6.20;2.10;;;;;;;17.58;53.88;100900.38;4958472;29;20058;-62
2022/08/07 00:24:19;;;;;;;3.72;2.10;;;;;;;17.58;53.83;100912.59;4958303;29;20480;-62
2022/08/07 00:27:05;;;;;;;4.65;2.63;;;;;;;17.55;53.67;100909.97;4958522;29;20170;-61
2022/08/07 00:29:52;;;;;;;5.90;2.45;;;;;;;17.54;53.87;100911.72;4943444;29;20058;-62
2022/08/07 00:32:41;;;;;;;2.60;1.92;;;;;;;17.55;53.84;100905.59;4957993;29;20394;-62
2022/08/07 00:35:27;;;;;;;5.35;2.10;;;;;;;17.53;53.63;100902.09;4943618;29;20447;-61
2022/08/07 00:38:14;;;;;;;2.33;1.80;;;;;;;17.53;53.92;100906.47;4944263;29;20042;-61
2022/08/07 00:41:01;;;;;;;3.75;2.40;;;;;;;17.53;53.94;100891.63;4957784;29;20055;-63
2022/08/07 00:43:45;;;;;;;3.72;2.00;;;;;;;17.50;54.25;100894.25;4942869;29;20053;-60
2022/08/07 00:46:32;;;;;;;4.60;2.53;;;;;;;17.49;54.13;100895.13;4957789;29;20050;-61
2022/08/07 00:49:16;;;;;;;2.90;1.92;;;;;;;17.49;53.99;100889.88;4942985;29;20097;-61
2022/08/07 00:52:04;;;;;;;4.55;2.15;;;;;;;17.48;54.20;100888.13;4957900;29;20054;-61
2022/08/07 00:54:51;;;;;;;6.00;2.20;;;;;;;17.45;54.36;100883.75;4957740;29;20058;-63
2022/08/07 00:57:38;;;;;;;3.78;2.22;;;;;;;17.47;54.02;100881.16;4957518;29;20118;-61
2022/08/07 01:00:26;;;;;;;4.32;1.90;;;;;;;17.44;53.96;100874.13;4957637;29;20590;-63
2022/08/07 01:03:13;;;;;;;4.10;2.42;;;;;;;17.44;53.91;100884.63;4942892;29;20415;-62
2022/08/07 01:05:57;;;;;;;4.97;2.20;;;;;;;17.43;53.97;100876.75;4943459;29;20455;-61
2022/08/07 01:08:44;;;;;;;;;;;;;;;17.40;54.23;100868.91;4957982;29;20182;-62
2022/08/07 01:11:29;;;;;;;4.97;2.17;;;;;;;17.39;54.13;100867.16;4942775;29;20074;-62
2022/08/07 01:14:13;;;;;;;2.45;1.92;;;;;;;17.38;54.18;100865.41;4943073;29;20051;-63
2022/08/07 01:17:02;;;;;;;4.38;2.08;;;;;;;17.33;54.28;100861.06;4957083;29;20563;-63
2022/08/07 01:19:47;;;;;;;3.20;2.20;;;;;;;17.34;54.41;100864.53;4942478;29;20082;-62
2022/08/07 01:22:35;;;;;;;;;;;;;;;17.30;54.33;100866.28;4957209;29;20529;-63
2022/08/07 01:25:22;;;;;;;7.80;2.53;;;;;;;17.29;54.52;100864.53;4942896;29;19921;-62
2022/08/07 01:28:10;;;;;;;6.22;2.75;;;;;;;17.30;54.48;100862.78;4942828;29;20066;-62
2022/08/07 01:31:00;;;;;;;3.55;2.25;;;;;;;17.26;54.50;100869.75;4942044;29;20070;-62
2022/08/07 01:33:50;;;;;;;3.03;2.20;;;;;;;17.23;54.43;100863.66;4957018;29;20058;-62
2022/08/07 01:36:35;;;;;;;3.63;2.28;;;;;;;17.20;54.51;100867.16;4957132;29;20058;-62
2022/08/07 01:39:21;;;;;;;6.22;2.78;;;;;;;17.18;54.53;100864.50;4957160;29;20106;-62
2022/08/07 01:42:08;;;;;;;2.83;2.28;;;;;;;17.20;54.61;100867.16;4957105;29;20522;-62
2022/08/07 01:44:52;;;;;;;4.68;2.10;;;;;;;17.18;54.52;100858.41;4957029;29;20518;-63
2022/08/07 01:47:41;;;;;;;4.38;2.10;;;;;;;17.17;54.61;100862.75;4956738;29;20058;-62
2022/08/07 01:50:26;;;;;;;4.07;2.40;;;;;;;17.17;54.73;100872.38;4942212;29;20118;-62
2022/08/07 01:53:12;;;;;;;4.38;2.40;;;;;;;17.16;54.68;100863.63;4942128;28;20054;-62
2022/08/07 01:56:04;;;;;;;9.32;2.22;;;;;;;17.16;54.72;100866.25;4942097;29;20102;-63
2022/08/07 01:58:54;;;;;;;5.93;2.45;;;;;;;17.14;54.76;100857.50;4942143;29;20072;-62
2022/08/07 02:01:54;;;;;;;5.13;2.38;;;;;;;17.16;54.74;100870.63;4941900;29;20534;-62
2022/08/07 02:05:01;;;;;;;4.60;2.50;;;;;;;17.15;54.87;100855.78;4956493;29;20070;-62
2022/08/07 02:07:56;;;;;;;5.07;2.15;;;;;;;17.12;54.77;100859.28;4942107;29;20105;-62
2022/08/07 02:10:46;;;;;;;4.20;2.75;;;;;;;17.10;54.96;100852.25;4955854;29;20094;-62
2022/08/07 02:13:32;;;;;;;2.72;2.30;;;;;;;17.08;54.90;100860.13;4941864;29;20122;-63
2022/08/07 02:16:21;;;;;;;5.10;2.80;;;;;;;17.07;54.82;100855.75;4941868;29;20050;-62
2022/08/07 02:19:11;;;;;;;3.67;2.42;;;;;;;17.07;54.88;100860.13;4956473;29;20054;-62
2022/08/07 02:22:00;;;;;;;5.25;2.58;;;;;;;17.07;55.01;100860.13;4956124;29;20058;-62
2022/08/07 02:24:53;;;;;;;5.82;2.75;;;;;;;17.03;54.83;100848.75;4956323;29;20582;-63
2022/08/07 02:27:38;;;;;;;3.97;2.65;;;;;;;17.00;54.99;100854.88;4956029;29;20113;-62
2022/08/07 02:30:24;;;;;;;5.00;2.88;;;;;;;16.95;55.13;100850.50;4941598;29;20050;-62
2022/08/07 02:33:12;;;;;;;9.95;2.42;;;;;;;16.90;55.02;100855.66;4941640;29;20125;-63
2022/08/07 02:36:02;;;;;;;4.30;2.45;;;;;;;16.91;54.94;100860.03;4941632;29;20117;-62
2022/08/07 02:38:47;;;;;;;4.40;2.20;;;;;;;16.89;54.94;100853.94;4941396;29;20467;-62
2022/08/07 02:41:36;;;;;;;2.90;2.08;;;;;;;16.89;55.12;100851.34;4941507;29;20431;-63
2022/08/07 02:44:26;;;;;;;5.95;3.08;;;;;;;16.85;54.94;100844.34;4955839;29;20423;-62
2022/08/07 02:47:14;;;;;;;4.13;2.35;;;;;;;16.84;54.83;100838.22;4941551;29;20137;-62
2022/08/07 02:49:59;;;;;;;3.80;2.63;;;;;;;16.82;54.99;100836.47;4955535;29;20054;-63
2022/08/07 02:52:55;;;;;;;4.53;1.85;;;;;;;16.82;55.07;100834.72;4941235;29;20058;-60
2022/08/07 02:55:46;;;;;;;3.90;2.47;;;;;;;16.82;55.18;100841.69;4941233;29;20050;-61
2022/08/07 02:58:38;;;;;;;3.33;2.28;;;;;;;16.80;55.13;100833.84;4941227;29;20062;-61
2022/08/07 03:01:26;;;;;;;4.47;2.75;;;;;;;16.81;55.34;100832.09;4955542;29;20134;-61
2022/08/07 03:04:13;;;;;;;8.32;3.05;;;;;;;16.79;55.24;100837.34;4955675;29;20050;-61
2022/08/07 03:06:58;;;;;;;5.60;2.40;;;;;;;16.77;55.31;100825.09;4955848;29;20054;-63
2022/08/07 03:09:46;;;;;;;4.40;2.85;;;;;;;16.77;55.28;100831.22;4955448;29;20051;-62
2022/08/07 03:12:36;;;;;;;5.43;2.80;;;;;;;16.75;55.37;100838.19;4941101;29;20586;-62
2022/08/07 03:15:26;;;;;;;4.20;2.88;;;;;;;16.66;55.40;100835.56;4940990;29;20074;-61
2022/08/07 03:18:14;;;;;;;3.47;2.25;;;;;;;16.61;55.29;100840.75;4941273;29;20058;-63
2022/08/07 03:21:00;;;;;;;3.13;2.45;;;;;;;16.59;55.33;100832.91;4941110;29;20054;-63
2022/08/07 03:23:50;;;;;;;3.90;2.47;;;;;;;16.58;55.26;100830.31;4955364;29;20054;-61
2022/08/07 03:26:34;;;;;;;3.17;2.50;;;;;;;16.57;55.25;100834.63;4941045;29;20571;-62
2022/08/07 03:29:22;;;;;;;;;;;;;;;16.55;55.07;100832.91;4955672;29;20053;-61
2022/08/07 03:32:09;;;;;;;4.35;2.53;;;;;;;16.53;55.29;100824.16;4941055;29;20389;-61
2022/08/07 03:34:58;;;;;;;3.03;2.70;;;;;;;16.55;55.50;100830.28;4955485;29;20058;-63
2022/08/07 03:37:52;;;;;;;3.45;2.78;;;;;;;16.55;55.55;100822.44;4940631;29;20098;-62
2022/08/07 03:40:45;;;;;;;6.03;2.92;;;;;;;16.53;55.82;100829.41;4954987;29;20081;-63
2022/08/07 03:43:31;;;;;;;4.85;2.90;;;;;;;16.53;55.62;100826.78;4940630;29;20061;-62
2022/08/07 03:46:18;;;;;;;4.07;2.85;;;;;;;16.53;55.77;100832.00;4940838;29;20078;-63
2022/08/07 03:49:05;;;;;;;6.50;3.13;;;;;;;16.49;55.65;100835.47;4940838;29;20045;-62
2022/08/07 03:51:51;;;;;;;4.72;3.00;;;;;;;16.48;55.72;100838.97;4955113;29;20566;-61
2022/08/07 03:54:44;;;;;;;4.80;2.53;;;;;;;16.43;55.82;100839.81;4940761;29;20070;-61
2022/08/07 03:57:35;;;;;;;4.82;2.97;;;;;;;16.42;54.91;100832.84;4940533;29;20078;-61
2022/08/07 04:00:23;;;;;;;7.22;2.75;;;;;;;16.39;55.81;100830.22;4955157;29;20091;-61
2022/08/07 04:03:13;;;;;;;5.22;3.22;;;;;;;16.39;55.71;100829.31;4940021;29;20529;-62
2022/08/07 04:06:09;;;;;;;3.08;2.70;;;;;;;16.39;55.91;100816.25;4940927;29;20102;-61
2022/08/07 04:08:56;;;;;;;5.32;3.25;;;;;;;16.40;55.51;100818.00;4940628;29;20411;-61
2022/08/07 04:11:49;;;;;;;3.65;2.92;;;;;;;16.41;55.42;100819.75;4940576;29;20047;-61
2022/08/07 04:14:40;;;;;;;5.03;2.80;;;;;;;16.38;55.85;100831.09;4954937;29;20529;-61
2022/08/07 04:17:30;;;;;;;5.35;3.28;;;;;;;16.37;55.89;100831.94;4956046;28;20110;-61
2022/08/07 04:20:20;;;;;;;4.53;3.28;;;;;;;16.35;55.82;100832.81;4943609;29;20071;-61
2022/08/07 04:23:10;;;;;;;3.83;3.40;;;;;;;16.33;55.91;100830.19;4958435;29;20054;-62
2022/08/07 04:25:57;;;;;;;11.02;3.50;;;;;;;16.33;55.87;100830.19;4943968;29;20133;-61
2022/08/07 04:28:49;;;;;;;5.35;3.08;;;;;;;16.33;55.92;100831.94;4958257;29;20102;-61
2022/08/07 04:31:36;;;;;;;6.60;3.75;;;;;;;16.33;56.13;100827.56;4943451;29;20054;-61
2022/08/07 04:34:24;;;;;;;6.50;4.05;;;;;;;16.32;56.04;100833.66;4943823;29;20094;-61
2022/08/07 04:37:13;;;;;;;6.47;3.70;;;;;;;16.31;56.15;100839.75;4943943;29;20114;-60
2022/08/07 04:40:06;;;;;;;4.18;2.80;;;;;;;16.26;56.31;100846.72;4943495;29;20118;-61
2022/08/07 04:42:53;;;;;;;5.47;3.50;;;;;;;16.26;56.03;100844.09;4943638;29;20069;-61
2022/08/07 04:45:55;;;;;;;7.90;3.70;;;;;;;16.23;56.05;100849.31;4957902;29;20058;-61
2022/08/07 04:48:39;;;;;;;3.88;2.95;;;;;;;16.20;56.01;100844.91;4943279;29;20138;-61
2022/08/07 04:51:36;;;;;;;4.60;3.28;;;;;;;16.17;56.25;100844.94;4957724;29;20090;-61
2022/08/07 04:54:23;;;;;;;5.00;3.33;;;;;;;16.12;56.35;100841.41;4943810;29;20054;-61
2022/08/07 04:57:41;;;;;;;4.55;3.67;;;;;;;16.12;55.94;100847.50;4957795;29;20045;-61
2022/08/07 05:00:46;;;;;;;7.40;3.40;;;;;;;16.11;56.20;100843.16;4943247;29;20097;-61
2022/08/07 05:03:52;;;;;;;5.35;3.55;;;;;;;16.09;56.22;100844.00;4955419;29;20094;-61
2022/08/07 05:06:57;;;;;;;4.55;3.15;;;;;;;16.08;56.26;100850.09;4957624;29;20578;-61
2022/08/07 05:10:01;;;;;;;;;;;;;;;16.05;56.18;100850.06;4943551;29;20054;-61
2022/08/07 05:13:14;;;;;;;5.68;3.50;;;;;;;16.02;56.30;100850.94;4942743;29;20401;-61
2022/08/07 05:16:00;;;;;;;4.47;3.38;;;;;;;16.05;56.49;100850.06;4957460;29;20058;-61
2022/08/07 05:18:54;;;;;;;5.07;3.65;;;;;;;16.04;56.48;100853.56;4942753;29;20058;-61
2022/08/07 05:21:50;;;;;;;8.05;3.50;;;;;;;16.06;56.41;100857.03;4957503;29;20053;-61
2022/08/07 05:24:36;;;;;;;5.93;3.25;;;;;;;16.06;56.41;100854.41;4957047;29;20046;-63
2022/08/07 05:27:22;;;;;;;5.28;3.45;;;;;;;16.06;56.24;100851.81;4956962;29;20058;-63
2022/08/07 05:30:10;;;;;;;9.75;3.13;;;;;;;16.06;56.40;100857.94;4957245;29;20046;-60
2022/08/07 05:32:55;;;;;;;4.35;2.97;;;;;;;16.06;56.84;100859.66;4942690;29;20059;-63
2022/08/07 05:35:43;;;;;;;4.57;3.03;;;;;;;16.06;56.84;100863.16;4942693;29;20042;-62
2022/08/07 05:38:33;;;;;;;9.65;3.20;;;;;;;16.08;56.94;100871.00;4942652;29;20055;-63
2022/08/07 05:41:17;;;;;;;10.95;3.88;;;;;;;16.06;56.83;100873.63;4942306;29;20054;-63
2022/08/07 05:44:02;;;;;;;4.18;3.40;;;;;;;16.09;56.78;100872.75;4942607;29;20145;-63
2022/08/07 05:46:50;;;;;;;5.57;3.10;;;;;;;16.11;56.79;100871.91;4942256;29;20139;-63
2022/08/07 05:49:35;;;;;;;5.60;3.42;;;;;;;16.12;57.07;100876.25;4942353;29;20501;-63
2022/08/07 05:52:22;;;;;;;7.82;3.42;;;;;;;16.16;57.11;100877.16;4956928;29;20050;-63
2022/08/07 05:55:07;;;;;;;5.72;3.63;;;;;;;16.17;57.12;100875.41;4956781;29;20070;-63
2022/08/07 05:57:57;;;;;;;4.72;3.30;;;;;;;16.18;57.22;100885.00;4942303;29;20128;-63
2022/08/07 06:00:45;;;;;;;7.43;3.75;;;;;;;16.20;57.23;100884.16;4942250;29;20054;-63
2022/08/07 06:03:33;;;;;;;7.43;3.83;;;;;;;16.25;57.23;100884.19;4956314;29;20502;-61
2022/08/07 06:06:22;;;;;;;6.40;3.92;;;;;;;16.27;57.25;100883.34;4942122;29;20133;-61
2022/08/07 06:09:07;;;;;;;7.05;4.00;;;;;;;16.30;57.28;100887.69;4942044;29;20050;-61
2022/08/07 06:11:53;;;;;;;4.32;3.67;;;;;;;16.33;57.46;100885.09;4941761;29;20050;-61
2022/08/07 06:14:41;;;;;;;7.85;4.47;;;;;;;16.36;57.46;100876.38;4941766;29;20525;-61
2022/08/07 06:17:26;;;;;;;7.45;4.45;;;;;;;16.39;57.37;100876.41;4941552;29;20098;-61
2022/08/07 06:20:14;;;;;;;6.82;4.97;;;;;;;16.40;57.61;100879.06;4941907;29;20050;-61
2022/08/07 06:23:05;;;;;;;5.68;4.72;;;;;;;16.43;57.59;100886.88;4956342;29;20106;-61
2022/08/07 06:25:56;;;;;;;6.40;5.18;;;;;;;16.46;57.77;100885.16;4941828;29;20513;-61
2022/08/07 06:29:07;;;;;;;7.75;4.93;;;;;;;16.48;57.76;100879.09;4941387;29;20426;-61
2022/08/07 06:31:56;;;;;;;5.75;4.93;;;;;;;16.50;57.90;100879.09;4956040;29;20831;-61
2022/08/07 06:34:42;;;;;;;6.03;5.03;;;;;;;16.51;57.95;100880.84;4941684;29;20075;-61
2022/08/07 06:37:29;;;;;;;7.05;4.78;;;;;;;16.54;57.82;100883.47;4941626;29;20558;-61
2022/08/07 06:40:16;;;;;;;5.85;5.07;;;;;;;16.55;57.99;100883.47;4941204;29;20054;-63
2022/08/07 06:43:09;;;;;;;6.55;5.88;;;;;;;16.58;58.06;100877.41;4941420;29;20058;-63
2022/08/07 06:45:58;;;;;;;6.95;4.93;;;;;;;16.58;57.97;100878.25;4955991;29;20054;-63
2022/08/07 06:48:47;;;;;;;7.95;4.78;;;;;;;16.61;57.95;100876.53;4941685;29;20399;-63
2022/08/07 06:51:37;;;;;;;7.55;5.15;;;;;;;16.61;57.91;100871.28;4941224;29;20054;-61
2022/08/07 06:54:27;;;;;;;7.93;5.68;;;;;;;16.61;58.21;100874.75;4941452;29;20053;-61
2022/08/07 06:57:12;;;;;;;7.68;5.43;;;;;;;16.63;57.93;100873.03;4941387;29;20102;-61
2022/08/07 07:00:03;;;;;;;7.72;5.85;;;;;;;16.65;58.11;100873.06;4955473;29;20123;-61
2022/08/07 07:02:49;;;;;;;9.48;6.13;;;;;;;16.66;58.29;100873.06;4955523;29;20134;-61
2022/08/07 07:05:35;;;;;;;10.75;6.03;;;;;;;16.68;58.31;100884.41;4940983;29;20058;-61
2022/08/07 07:08:25;;;;;;;8.57;5.65;;;;;;;16.69;58.37;100882.66;4941342;29;20054;-61
2022/08/07 07:11:11;;;;;;;9.65;5.22;;;;;;;16.69;58.42;100885.28;4940922;29;20054;-61
2022/08/07 07:14:00;;;;;;;8.77;5.68;;;;;;;16.70;58.37;100881.78;4940924;29;20057;-61
2022/08/07 07:16:51;;;;;;;11.48;5.82;;;;;;;16.73;58.41;100881.81;4955477;29;20430;-61
2022/08/07 07:19:42;;;;;;;8.05;5.93;;;;;;;16.74;58.39;100889.66;4941093;29;20109;-61
2022/08/07 07:22:29;;;;;;;8.98;5.75;;;;;;;16.76;58.58;100881.81;4955444;29;20066;-61
2022/08/07 07:25:22;;;;;;;9.10;5.93;;;;;;;16.78;58.46;100876.59;4941133;29;20046;-61
2022/08/07 07:28:15;;;;;;;9.10;6.78;;;;;;;16.78;58.38;100873.97;4955483;29;20061;-61
2022/08/07 07:31:23;;;;;;;7.90;6.10;;;;;;;16.80;58.50;100873.13;4940509;29;20109;-61
2022/08/07 07:34:13;;;;;;;7.65;6.15;;;;;;;16.81;58.50;100868.75;4955500;29;20506;-61
2022/08/07 07:37:03;;;;;;;9.57;6.20;;;;;;;16.81;58.76;100876.59;4940776;29;20103;-61
2022/08/07 07:39:57;;;;;;;7.13;5.70;;;;;;;16.84;58.39;100868.75;4940727;29;20087;-61
2022/08/07 07:42:46;;;;;;;7.00;5.60;;;;;;;16.86;58.55;100874.88;4955151;29;20459;-61
2022/08/07 07:45:34;;;;;;;12.20;5.63;;;;;;;16.88;58.72;100873.16;4955016;29;20062;-61
2022/08/07 07:48:23;;;;;;;7.05;6.28;;;;;;;16.86;58.63;100878.34;4940951;29;20102;-61
2022/08/07 07:51:11;;;;;;;10.15;5.97;;;;;;;16.89;58.46;100877.50;4940524;28;20458;-61
2022/08/07 07:53:59;;;;;;;7.45;5.93;;;;;;;16.90;58.68;100874.00;4958922;29;20174;-63
2022/08/07 07:56:45;;;;;;;12.23;5.60;;;;;;;16.92;58.55;100872.25;4958717;29;20054;-62
2022/08/07 07:59:30;;;;;;;9.27;5.60;;;;;;;16.93;58.61;100876.63;4944334;29;20106;-63
2022/08/07 08:02:19;;;;;;;8.63;5.43;;;;;;;16.95;58.52;100872.31;4938341;29;20067;-63
2022/08/07 08:05:07;;;;;;;6.63;5.32;;;;;;;16.97;58.60;100867.09;4938690;29;20054;-63
2022/08/07 08:07:52;;;;;;;9.15;5.95;;;;;;;16.98;58.48;100872.31;4938679;29;20055;-62
2022/08/07 08:10:38;;;;;;;7.35;5.65;;;;;;;16.99;58.45;100875.81;4939147;29;20046;-61
2022/08/07 08:13:30;;;;;;;5.53;4.93;;;;;;;16.99;58.43;100867.94;4938610;29;20059;-61
2022/08/07 08:16:19;;;;;;;5.82;4.88;;;;;;;17.00;58.75;100865.34;4939254;29;20526;-61
2022/08/07 08:19:08;;;;;;;8.27;5.28;;;;;;;17.02;58.75;100867.97;4938254;29;20048;-61
2022/08/07 08:28:14;;;;;;;4.75;3.78;;;;;;;17.08;58.47;100859.25;4938916;29;20054;-62
2022/08/07 08:31:02;;;;;;;6.43;4.55;;;;;;;17.09;58.53;100847.91;4939275;29;20149;-60
2022/08/07 08:33:53;;;;;;;5.30;4.60;;;;;;;17.10;58.56;100854.88;4938003;29;20122;-60
2022/08/07 08:36:39;;;;;;;6.60;4.78;;;;;;;17.13;58.53;100849.66;4939079;29;20050;-60
2022/08/07 08:39:30;;;;;;;7.97;4.18;;;;;;;17.13;58.45;100847.91;4938146;29;20047;-60
2022/08/07 08:42:38;;;;;;;5.15;3.80;;;;;;;17.18;58.51;100842.69;4938843;29;20070;-60
2022/08/07 08:45:49;;;;;;;7.68;3.90;;;;;;;17.20;58.44;100835.72;4937940;29;20067;-61
2022/08/07 08:48:43;;;;;;;6.45;3.58;;;;;;;17.23;58.51;100837.47;4938835;29;20522;-61
2022/08/07 08:51:58;;;;;;;7.28;4.18;;;;;;;17.27;58.63;100844.44;4937681;29;20080;-60
2022/08/07 08:55:05;;;;;;;6.65;4.15;;;;;;;17.30;58.36;100841.81;4937496;29;20055;-61
2022/08/07 08:58:05;;;;;;;7.18;4.32;;;;;;;17.32;58.03;100840.97;4937751;29;20130;-63
2022/08/07 09:01:03;;;;;;;5.55;3.70;;;;;;;17.34;58.33;100833.97;4937727;29;20050;-62
2022/08/07 09:04:07;;;;;;;5.53;4.00;;;;;;;17.38;58.25;100836.56;4938367;29;20066;-61
2022/08/07 09:07:18;;;;;;;5.53;3.85;;;;;;;17.39;58.11;100836.59;4937663;29;20115;-62
2022/08/07 09:10:21;;;;;;;5.13;3.95;;;;;;;17.39;58.20;100836.59;4937425;29;20135;-62
2022/08/07 09:13:31;;;;;;;6.10;3.35;;;;;;;17.42;58.01;100830.47;4938077;29;20054;-62
2022/08/07 09:16:39;;;;;;;5.57;4.10;;;;;;;17.45;57.91;100833.09;5131911;27;20139;-61
2022/08/07 09:19:52;;;;;;;4.97;3.50;;;;;;;17.48;57.89;100820.00;5116926;28;20045;-60
2022/08/07 09:23:01;;;;;;;5.05;3.42;;;;;;;17.49;57.92;100822.63;5132072;28;20047;-60
2022/08/07 09:26:05;;;;;;;7.63;3.22;;;;;;;17.50;57.94;100820.88;5116218;28;20054;-60
2022/08/07 09:29:23;;;;;;;4.03;2.92;;;;;;;17.53;57.94;100823.47;5132169;28;20094;-60
2022/08/07 09:32:20;;;;;;;3.28;2.92;;;;;;;17.55;57.58;100813.00;5100211;28;20148;-60
2022/08/07 09:35:37;;;;;;;2.90;2.40;;;;;;;17.57;57.66;100821.75;5116162;28;20050;-61
2022/08/07 09:38:37;;;;;;;3.35;2.33;;;;;;;17.56;57.50;100817.38;5131484;28;20089;-60
2022/08/07 09:41:47;;;;;;;2.80;2.13;;;;;;;17.61;57.36;100818.22;5131372;28;20090;-61
2022/08/07 09:44:40;;;;;;;4.03;2.00;;;;;;;17.61;57.25;100819.13;5115748;28;20578;-61
2022/08/07 09:47:48;;;;;;;3.08;2.22;;;;;;;17.61;57.31;100811.25;5116143;28;20541;-61
2022/08/07 09:50:52;;;;;;;4.85;2.30;;;;;;;17.63;57.15;100817.38;5115831;28;20057;-61
2022/08/07 09:53:43;;;;;;;3.50;2.17;;;;;;;17.63;56.81;100821.72;5131343;28;20050;-60
2022/08/07 09:56:55;;;;;;;4.20;2.38;;;;;;;17.65;56.97;100820.88;5115595;28;20524;-61
2022/08/07 09:59:45;;;;;;;2.38;1.70;;;;;;;17.65;56.88;100807.78;5131331;28;20100;-61
2022/08/07 10:02:47;;;;;;;2.03;1.67;;;;;;;17.67;56.53;100805.13;5115928;28;20058;-61
2022/08/07 10:05:55;;;;;;;5.07;2.20;;;;;;;17.67;56.85;100802.50;5131321;28;20045;-60
2022/08/07 10:09:09;;;;;;;2.05;1.38;;;;;;;17.69;56.77;100802.50;5115773;28;20089;-61
2022/08/07 10:12:14;;;;;;;;;;;;;;;17.68;56.90;100793.78;5131233;28;20444;-62
2022/08/07 10:15:10;;;;;;;2.92;1.85;;;;;;;17.69;56.65;100790.28;5130618;28;20037;-62
2022/08/07 10:18:03;;;;;;;2.08;1.38;;;;;;;17.72;56.51;100798.16;5115610;28;20095;-60
2022/08/07 10:21:05;;;;;;;4.63;1.60;;;;;;;17.73;56.14;100792.03;5115222;28;20070;-63
2022/08/07 10:24:02;;;;;;;1.85;1.45;;;;;;;17.75;56.35;100784.16;5130933;28;20457;-62
2022/08/07 10:27:05;;;;;;;1.70;1.50;;;;;;;17.75;56.36;100779.75;5108218;28;20038;-60
2022/08/07 10:30:10;;;;;;;3.90;1.65;;;;;;;17.76;56.15;100773.66;5101682;28;20073;-61
2022/08/07 10:33:15;;;;;;;2.03;1.65;;;;;;;17.77;56.01;100775.41;5101717;28;20043;-60
2022/08/07 10:36:24;;;;;;;1.75;1.58;;;;;;;17.79;55.88;100775.41;5116753;28;20042;-61
2022/08/07 10:39:26;;;;;;;3.65;1.48;;;;;;;17.78;55.91;100771.91;5116843;28;20092;-60
2022/08/07 10:42:30;;;;;;;1.65;1.50;;;;;;;17.80;55.49;100764.91;5101474;28;20180;-61
2022/08/07 10:45:24;;;;;;;2.72;1.77;;;;;;;17.81;55.63;100771.91;5116735;28;20091;-60
2022/08/07 10:48:21;;;;;;;7.65;2.30;;;;;;;17.83;55.14;100768.41;5101430;28;20054;-63
2022/08/07 10:51:17;;;;;;;5.07;1.35;;;;;;;17.83;55.37;100768.41;5101180;28;20043;-62
2022/08/07 10:54:17;;;;;;;4.85;1.83;;;;;;;17.83;55.44;100755.28;5116563;28;20047;-62
2022/08/07 10:57:14;;;;;;;3.58;1.38;;;;;;;17.84;55.09;100751.81;5100868;28;20104;-63
2022/08/07 11:00:08;;;;;;;1.60;1.10;;;;;;;17.87;55.34;100747.41;5100992;28;20105;-62
2022/08/07 11:03:15;;;;;;;2.70;1.30;;;;;;;17.89;54.74;100750.03;5116492;28;20555;-62
2022/08/07 11:06:21;;;;;;;1.70;1.58;;;;;;;17.90;55.05;100749.16;5100663;28;20046;-63
2022/08/07 11:09:30;;;;;;;2.28;1.60;;;;;;;17.91;54.89;100743.91;5100927;28;20096;-62
2022/08/07 11:12:41;;;;;;;2.72;1.60;;;;;;;17.91;54.69;100735.16;5100936;28;20403;-62
2022/08/07 11:15:22;;;;;;;1.50;1.40;;;;;;;17.93;54.72;100733.41;5111573;27;20369;-62
2022/08/07 11:18:59;;;;;;;5.28;1.83;;;;;;;17.95;54.76;100742.13;5110623;28;20042;-62
2022/08/07 11:22:07;;;;;;;1.60;1.50;;;;;;;17.94;54.56;100732.53;5104763;28;20518;-62
2022/08/07 11:25:17;;;;;;;2.60;1.58;;;;;;;17.96;54.43;100731.66;5111102;28;20502;-62
2022/08/07 11:28:15;;;;;;;1.92;1.65;;;;;;;17.98;54.27;100722.97;5110397;28;20047;-62
2022/08/07 11:31:18;;;;;;;3.70;1.95;;;;;;;18.00;54.12;100721.16;5110223;28;20055;-62
2022/08/07 11:34:19;;;;;;;2.60;1.40;;;;;;;18.02;53.99;100720.31;5111107;28;20121;-62
2022/08/07 11:37:28;;;;;;;2.08;1.52;;;;;;;18.03;53.96;100719.44;5110331;28;20074;-62
2022/08/07 11:40:24;;;;;;;1.98;1.75;;;;;;;18.04;53.77;100715.03;5110209;28;20123;-62
2022/08/07 11:43:24;;;;;;;2.78;1.70;;;;;;;18.06;53.79;100713.28;5109879;28;20047;-62
2022/08/07 11:46:26;;;;;;;3.00;1.90;;;;;;;18.07;53.61;100721.13;5110547;28;20395;-62
2022/08/07 11:49:17;;;;;;;4.03;1.88;;;;;;;18.08;53.52;100722.03;5110052;28;20051;-61
2022/08/07 11:52:41;;;;;;;2.53;1.63;;;;;;;18.08;53.75;100714.16;5109869;28;20509;-62
2022/08/07 11:55:46;;;;;;;4.65;1.90;;;;;;;18.08;53.57;100706.28;5109736;28;20065;-62
2022/08/07 11:58:57;;;;;;;8.90;2.03;;;;;;;18.11;53.58;100714.16;5110755;28;20054;-62
2022/08/07 12:02:09;;;;;;;8.13;2.00;;;;;;;18.11;53.46;100701.03;5109848;28;20047;-62
2022/08/07 12:05:08;;;;;;;5.00;1.58;;;;;;;18.12;53.37;100713.28;5110623;28;20059;-62
2022/08/07 12:08:00;;;;;;;5.03;1.83;;;;;;;18.12;53.34;100702.78;5109787;28;20101;-62
2022/08/07 12:10:54;;;;;;;2.38;1.60;;;;;;;18.10;53.33;100702.78;5109287;28;20055;-62
2022/08/07 12:13:52;;;;;;;5.63;1.88;;;;;;;18.14;53.27;100708.00;5109434;28;20410;-62
2022/08/07 12:16:45;;;;;;;5.05;2.95;;;;;;;18.16;52.92;100703.63;5110498;28;20137;-62
2022/08/07 12:19:37;;;;;;;3.08;1.73;;;;;;;18.16;52.99;100703.63;5109522;28;20062;-62
2022/08/07 12:22:47;;;;;;;4.13;1.60;;;;;;;18.18;52.95;100697.50;5110077;28;20186;-62
2022/08/07 12:28:59;;;;;;;2.53;2.15;;;;;;;18.18;53.02;100700.13;5096480;28;20461;-62
2022/08/07 12:31:57;;;;;;;3.25;1.83;;;;;;;18.20;52.83;100694.88;5095736;28;20138;-62
2022/08/07 12:34:43;;;;;;;3.70;1.88;;;;;;;18.22;52.62;100693.09;5095267;28;20046;-62
2022/08/07 12:37:29;;;;;;;2.45;1.80;;;;;;;18.25;52.32;100686.09;5095559;28;20136;-62
2022/08/07 12:40:19;;;;;;;2.72;2.00;;;;;;;18.29;52.46;100691.34;5095194;28;20403;-62
2022/08/07 12:43:10;;;;;;;1.60;1.42;;;;;;;18.26;52.56;100690.47;5095358;28;20043;-62
2022/08/07 12:46:18;;;;;;;1.73;1.60;;;;;;;18.26;52.62;100685.22;5096120;28;20101;-62
2022/08/07 12:49:20;;;;;;;4.43;1.75;;;;;;;18.28;52.62;100674.72;5096259;28;20039;-62
2022/08/07 12:52:14;;;;;;;6.85;1.85;;;;;;;18.29;52.10;100670.34;5095962;28;20051;-61
2022/08/07 12:55:08;;;;;;;3.20;1.83;;;;;;;18.30;52.02;100670.31;5094818;28;20070;-61
2022/08/07 12:57:56;;;;;;;2.38;1.63;;;;;;;18.30;52.12;100665.06;5095357;28;20105;-60
2022/08/07 13:01:02;;;;;;;5.72;1.70;;;;;;;18.33;51.80;100659.81;5095127;28;20074;-62
2022/08/07 13:03:50;;;;;;;7.07;1.90;;;;;;;18.35;51.98;100665.94;5094744;28;20106;-62
2022/08/07 13:07:01;;;;;;;3.92;1.73;;;;;;;18.37;52.18;100665.91;5095030;28;20572;-63
2022/08/07 13:09:59;;;;;;;3.20;1.63;;;;;;;18.39;51.53;100662.38;5094742;28;20096;-62
2022/08/07 13:12:50;;;;;;;3.30;1.40;;;;;;;18.39;51.92;100661.53;5095023;28;20498;-62
2022/08/07 13:15:59;;;;;;;5.07;1.70;;;;;;;18.44;51.76;100656.25;5095140;28;20051;-63
2022/08/07 13:18:58;;;;;;;1.98;1.38;;;;;;;18.45;51.36;100648.34;5094892;28;20109;-63
2022/08/07 13:21:55;;;;;;;1.50;1.40;;;;;;;18.44;51.56;100641.38;5095470;28;20047;-62
2022/08/07 13:24:54;;;;;;;2.65;1.60;;;;;;;18.48;51.61;100653.59;5094366;28;20479;-61
2022/08/07 13:27:49;;;;;;;3.65;1.58;;;;;;;18.49;51.59;100660.56;5094612;28;20047;-61
2022/08/07 13:30:33;;;;;;;;;;;;;;;18.50;51.69;100645.72;5094663;28;20502;-62
2022/08/07 13:33:56;;;;;;;3.45;1.67;;;;;;;18.48;51.58;100640.47;5095452;28;20389;-61
2022/08/07 13:36:51;;;;;;;7.28;1.75;;;;;;;18.48;51.25;100637.84;5092964;28;20051;-63
2022/08/07 13:39:47;;;;;;;3.10;1.55;;;;;;;18.48;51.63;100643.09;5095206;28;20043;-63